createdAt,value
2016-10-29T00:00:02.997Z,0
2016-10-29T00:01:03.008Z,0
2016-10-29T00:02:02.623Z,0
2016-10-29T00:03:02.886Z,0
2016-10-29T00:04:02.845Z,0
2016-10-29T00:05:02.502Z,0
2016-10-29T00:06:02.770Z,0
2016-10-29T00:07:02.429Z,0
2016-10-29T00:08:02.696Z,0
2016-10-29T00:09:02.352Z,0
2016-10-29T00:10:02.613Z,0
2016-10-29T00:11:02.273Z,0
2016-10-29T00:12:02.536Z,0
2016-10-29T00:13:02.200Z,0
2016-10-29T00:14:02.187Z,0
2016-10-29T00:15:02.126Z,0
2016-10-29T00:16:02.386Z,0
2016-10-29T00:17:02.344Z,0
2016-10-29T00:18:02.305Z,0
2016-10-29T00:19:02.262Z,4
2016-10-29T00:20:02.229Z,4
2016-10-29T00:21:02.192Z,4
2016-10-29T00:22:02.152Z,4
2016-10-29T00:23:02.109Z,4
2016-10-29T00:24:01.502Z,4
2016-10-29T00:25:02.037Z,4
2016-10-29T00:26:01.086Z,4
2016-10-29T00:27:01.688Z,4
2016-10-29T00:28:01.631Z,4
2016-10-29T00:29:01.582Z,0
2016-10-29T00:30:01.844Z,0
2016-10-29T00:31:01.850Z,0
2016-10-29T00:32:01.779Z,0
2016-10-29T00:33:01.727Z,0
2016-10-29T00:34:01.385Z,0
2016-10-29T00:35:01.650Z,0
2016-10-29T00:36:01.310Z,0
2016-10-29T00:37:01.275Z,0
2016-10-29T00:38:01.235Z,0
2016-10-29T00:39:01.512Z,0
2016-10-29T00:40:01.151Z,0
2016-10-29T00:41:01.416Z,0
2016-10-29T00:42:01.079Z,0
2016-10-29T00:43:01.343Z,0
2016-10-29T00:44:00.996Z,0
2016-10-29T00:45:01.266Z,0
2016-10-29T00:46:01.227Z,0
2016-10-29T00:47:01.189Z,0
2016-10-29T00:48:01.150Z,0
2016-10-29T00:49:00.809Z,0
2016-10-29T00:50:01.068Z,0
2016-10-29T00:51:00.735Z,0
2016-10-29T00:52:00.392Z,0
2016-10-29T00:53:00.656Z,0
2016-10-29T00:54:00.923Z,0
2016-10-29T00:55:00.879Z,0
2016-10-29T00:56:00.838Z,0
2016-10-29T00:56:59.896Z,0
2016-10-29T00:58:00.458Z,0
2016-10-29T00:59:00.757Z,0
2016-10-29T01:00:00.689Z,0
2016-10-29T01:01:00.345Z,0
2016-10-29T01:02:00.609Z,0
2016-10-29T01:03:00.570Z,0
2016-10-29T01:04:00.535Z,0
2016-10-29T01:05:00.192Z,0
2016-10-29T01:06:00.450Z,0
2016-10-29T01:07:00.413Z,0
2016-10-29T01:08:00.381Z,0
2016-10-29T01:09:00.341Z,0
2016-10-29T01:10:00.333Z,0
2016-10-29T01:11:00.269Z,0
2016-10-29T01:12:00.222Z,0
2016-10-29T01:13:00.186Z,0
2016-10-29T01:13:59.842Z,0
2016-10-29T01:14:59.800Z,0
2016-10-29T01:16:00.080Z,0
2016-10-29T01:16:59.726Z,0
2016-10-29T01:17:59.686Z,0
2016-10-29T01:18:59.952Z,0
2016-10-29T01:19:59.912Z,0
2016-10-29T01:20:59.875Z,0
2016-10-29T01:21:59.541Z,0
2016-10-29T01:22:59.499Z,0
2016-10-29T01:23:59.456Z,0
2016-10-29T01:24:59.119Z,0
2016-10-29T01:25:59.680Z,0
2016-10-29T01:26:59.039Z,0
2016-10-29T01:27:59.637Z,0
2016-10-29T01:28:59.266Z,0
2016-10-29T01:29:59.530Z,0
2016-10-29T01:30:59.488Z,0
2016-10-29T01:31:59.181Z,0
2016-10-29T01:32:59.411Z,0
2016-10-29T01:33:58.767Z,0
2016-10-29T01:34:58.734Z,0
2016-10-29T01:35:58.996Z,0
2016-10-29T01:36:59.263Z,0
2016-10-29T01:37:59.222Z,0
2016-10-29T01:38:59.183Z,0
2016-10-29T01:39:59.140Z,0
2016-10-29T01:40:59.108Z,0
2016-10-29T01:41:58.770Z,0
2016-10-29T01:42:59.026Z,0
2016-10-29T01:43:58.689Z,0
2016-10-29T01:44:58.951Z,0
2016-10-29T01:45:58.922Z,0
2016-10-29T01:46:58.567Z,0
2016-10-29T01:47:58.838Z,0
2016-10-29T01:48:58.236Z,0
2016-10-29T01:49:57.852Z,0
2016-10-29T01:50:58.760Z,0
2016-10-29T01:51:58.380Z,0
2016-10-29T01:52:58.645Z,0
2016-10-29T01:53:58.000Z,0
2016-10-29T01:54:58.568Z,0
2016-10-29T01:55:58.223Z,0
2016-10-29T01:56:58.489Z,0
2016-10-29T01:57:58.449Z,0
2016-10-29T01:58:58.413Z,0
2016-10-29T01:59:58.074Z,0
2016-10-29T02:00:57.728Z,0
2016-10-29T02:01:58.297Z,0
2016-10-29T02:02:58.260Z,0
2016-10-29T02:03:57.615Z,0
2016-10-29T02:04:57.270Z,0
2016-10-29T02:05:57.542Z,0
2016-10-29T02:06:57.798Z,0
2016-10-29T02:07:57.766Z,0
2016-10-29T02:08:57.418Z,0
2016-10-29T02:09:57.703Z,0
2016-10-29T02:10:57.944Z,0
2016-10-29T02:11:57.913Z,0
2016-10-29T02:12:57.868Z,0
2016-10-29T02:13:57.835Z,0
2016-10-29T02:14:57.793Z,0
2016-10-29T02:15:57.756Z,0
2016-10-29T02:16:57.716Z,0
2016-10-29T02:17:57.371Z,0
2016-10-29T02:18:57.642Z,0
2016-10-29T02:19:57.294Z,0
2016-10-29T02:20:57.262Z,0
2016-10-29T02:21:57.521Z,0
2016-10-29T02:22:57.485Z,0
2016-10-29T02:23:57.464Z,0
2016-10-29T02:24:57.108Z,0
2016-10-29T02:25:57.369Z,0
2016-10-29T02:26:57.322Z,0
2016-10-29T02:27:57.284Z,0
2016-10-29T02:28:57.252Z,0
2016-10-29T02:29:56.919Z,0
2016-10-29T02:30:57.188Z,0
2016-10-29T02:31:56.230Z,0
2016-10-29T02:32:57.096Z,0
2016-10-29T02:33:56.756Z,0
2016-10-29T02:34:57.022Z,0
2016-10-29T02:35:56.988Z,0
2016-10-29T02:36:56.949Z,0
2016-10-29T02:37:56.904Z,0
2016-10-29T02:38:56.566Z,0
2016-10-29T02:39:56.862Z,0
2016-10-29T02:40:56.785Z,0
2016-10-29T02:41:56.446Z,0
2016-10-29T02:42:56.109Z,0
2016-10-29T02:43:56.672Z,0
2016-10-29T02:44:56.335Z,0
2016-10-29T02:45:56.295Z,0
2016-10-29T02:46:56.563Z,0
2016-10-29T02:47:56.215Z,0
2016-10-29T02:48:56.487Z,0
2016-10-29T02:49:56.476Z,0
2016-10-29T02:50:56.411Z,0
2016-10-29T02:51:56.406Z,0
2016-10-29T02:52:56.019Z,0
2016-10-29T02:53:56.289Z,0
2016-10-29T02:54:56.252Z,0
2016-10-29T02:55:55.945Z,0
2016-10-29T02:56:56.177Z,0
2016-10-29T02:57:56.128Z,0
2016-10-29T02:58:56.100Z,0
2016-10-29T02:59:56.092Z,0
2016-10-29T03:00:56.012Z,0
2016-10-29T03:01:55.678Z,0
2016-10-29T03:02:55.953Z,0
2016-10-29T03:03:55.902Z,0
2016-10-29T03:04:55.859Z,0
2016-10-29T03:05:55.828Z,0
2016-10-29T03:06:55.782Z,0
2016-10-29T03:07:55.445Z,0
2016-10-29T03:08:55.710Z,0
2016-10-29T03:09:55.688Z,0
2016-10-29T03:10:55.324Z,0
2016-10-29T03:11:55.631Z,0
2016-10-29T03:12:55.255Z,0
2016-10-29T03:13:55.214Z,0
2016-10-29T03:14:55.478Z,0
2016-10-29T03:15:55.434Z,0
2016-10-29T03:16:55.442Z,0
2016-10-29T03:17:55.356Z,0
2016-10-29T03:18:55.019Z,0
2016-10-29T03:19:54.995Z,0
2016-10-29T03:20:55.246Z,0
2016-10-29T03:21:54.911Z,0
2016-10-29T03:22:55.203Z,0
2016-10-29T03:23:54.824Z,0
2016-10-29T03:24:54.515Z,0
2016-10-29T03:25:54.748Z,0
2016-10-29T03:26:54.709Z,0
2016-10-29T03:27:54.671Z,0
2016-10-29T03:28:54.638Z,0
2016-10-29T03:29:54.595Z,0
2016-10-29T03:30:54.858Z,0
2016-10-29T03:31:54.819Z,0
2016-10-29T03:32:54.827Z,0
2016-10-29T03:33:54.742Z,0
2016-10-29T03:34:54.707Z,0
2016-10-29T03:35:54.364Z,0
2016-10-29T03:36:54.322Z,0
2016-10-29T03:37:54.587Z,0
2016-10-29T03:38:54.580Z,0
2016-10-29T03:39:54.502Z,0
2016-10-29T03:40:54.480Z,0
2016-10-29T03:41:54.131Z,0
2016-10-29T03:42:54.090Z,0
2016-10-29T03:43:54.052Z,0
2016-10-29T03:44:53.418Z,0
2016-10-29T03:45:53.982Z,0
2016-10-29T03:46:54.236Z,0
2016-10-29T03:47:54.199Z,0
2016-10-29T03:48:54.167Z,0
2016-10-29T03:49:53.827Z,0
2016-10-29T03:50:54.085Z,0
2016-10-29T03:51:54.042Z,0
2016-10-29T03:52:54.003Z,0
2016-10-29T03:53:53.670Z,0
2016-10-29T03:54:53.926Z,0
2016-10-29T03:55:53.588Z,0
2016-10-29T03:56:53.854Z,0
2016-10-29T03:57:53.809Z,0
2016-10-29T03:58:53.771Z,0
2016-10-29T03:59:53.441Z,0
2016-10-29T04:00:53.693Z,0
2016-10-29T04:01:53.368Z,0
2016-10-29T04:02:53.622Z,0
2016-10-29T04:03:53.581Z,0
2016-10-29T04:04:53.551Z,0
2016-10-29T04:05:53.538Z,0
2016-10-29T04:06:53.195Z,0
2016-10-29T04:07:53.121Z,0
2016-10-29T04:08:53.083Z,0
2016-10-29T04:09:53.062Z,0
2016-10-29T04:10:53.008Z,0
2016-10-29T04:11:52.967Z,0
2016-10-29T04:12:53.236Z,0
2016-10-29T04:13:53.198Z,0
2016-10-29T04:14:53.152Z,0
2016-10-29T04:15:52.816Z,0
2016-10-29T04:16:53.079Z,0
2016-10-29T04:17:53.072Z,0
2016-10-29T04:18:52.994Z,0
2016-10-29T04:19:52.957Z,0
2016-10-29T04:20:52.614Z,0
2016-10-29T04:21:52.577Z,0
2016-10-29T04:22:52.539Z,0
2016-10-29T04:23:52.804Z,0
2016-10-29T04:24:52.764Z,0
2016-10-29T04:25:52.771Z,0
2016-10-29T04:26:52.698Z,0
2016-10-29T04:27:52.645Z,0
2016-10-29T04:28:52.611Z,0
2016-10-29T04:29:52.572Z,0
2016-10-29T04:30:52.533Z,0
2016-10-29T04:31:52.230Z,0
2016-10-29T04:32:52.456Z,0
2016-10-29T04:33:52.112Z,0
2016-10-29T04:34:52.379Z,0
2016-10-29T04:35:52.338Z,0
2016-10-29T04:36:52.295Z,0
2016-10-29T04:37:51.958Z,0
2016-10-29T04:38:51.920Z,0
2016-10-29T04:39:52.181Z,0
2016-10-29T04:40:52.149Z,0
2016-10-29T04:41:51.803Z,0
2016-10-29T04:42:51.796Z,0
2016-10-29T04:43:52.030Z,0
2016-10-29T04:44:51.990Z,0
2016-10-29T04:45:51.951Z,0
2016-10-29T04:46:51.910Z,0
2016-10-29T04:47:51.579Z,0
2016-10-29T04:48:51.535Z,0
2016-10-29T04:49:51.493Z,0
2016-10-29T04:50:51.772Z,0
2016-10-29T04:51:51.713Z,0
2016-10-29T04:52:51.377Z,0
2016-10-29T04:53:51.640Z,0
2016-10-29T04:54:51.333Z,0
2016-10-29T04:55:51.566Z,0
2016-10-29T04:56:51.215Z,0
2016-10-29T04:57:51.182Z,0
2016-10-29T04:58:50.843Z,0
2016-10-29T04:59:51.400Z,0
2016-10-29T05:00:51.363Z,0
2016-10-29T05:01:50.724Z,0
2016-10-29T05:02:50.987Z,0
2016-10-29T05:03:51.251Z,0
2016-10-29T05:04:50.907Z,0
2016-10-29T05:05:51.169Z,0
2016-10-29T05:06:51.140Z,0
2016-10-29T05:07:51.101Z,0
2016-10-29T05:08:50.463Z,0
2016-10-29T05:09:51.017Z,0
2016-10-29T05:10:50.980Z,0
2016-10-29T05:11:50.939Z,0
2016-10-29T05:12:50.597Z,0
2016-10-29T05:13:50.866Z,0
2016-10-29T05:14:50.822Z,0
2016-10-29T05:15:50.783Z,0
2016-10-29T05:16:50.742Z,0
2016-10-29T05:17:50.407Z,0
2016-10-29T05:18:50.406Z,0
2016-10-29T05:19:50.326Z,0
2016-10-29T05:20:50.592Z,0
2016-10-29T05:21:50.555Z,0
2016-10-29T05:22:50.208Z,0
2016-10-29T05:23:50.472Z,0
2016-10-29T05:24:50.437Z,0
2016-10-29T05:25:50.134Z,0
2016-10-29T05:26:50.059Z,0
2016-10-29T05:27:50.316Z,0
2016-10-29T05:28:49.684Z,0
2016-10-29T05:29:49.639Z,0
2016-10-29T05:30:50.208Z,0
2016-10-29T05:31:50.161Z,0
2016-10-29T05:32:49.864Z,0
2016-10-29T05:33:49.787Z,0
2016-10-29T05:34:49.779Z,0
2016-10-29T05:35:50.013Z,0
2016-10-29T05:36:49.987Z,0
2016-10-29T05:37:49.935Z,0
2016-10-29T05:38:49.630Z,0
2016-10-29T05:39:49.857Z,4
2016-10-29T05:40:49.807Z,4
2016-10-29T05:41:49.774Z,4
2016-10-29T05:42:49.738Z,4
2016-10-29T05:43:49.700Z,4
2016-10-29T05:44:49.357Z,4
2016-10-29T05:45:49.622Z,8
2016-10-29T05:46:49.620Z,8
2016-10-29T05:47:49.539Z,8
2016-10-29T05:48:49.503Z,12
2016-10-29T05:49:49.158Z,12
2016-10-29T05:50:49.121Z,12
2016-10-29T05:51:49.082Z,12
2016-10-29T05:52:49.351Z,16
2016-10-29T05:53:49.040Z,16
2016-10-29T05:54:49.270Z,24
2016-10-29T05:55:49.228Z,24
2016-10-29T05:56:49.189Z,24
2016-10-29T05:57:48.546Z,28
2016-10-29T05:58:49.147Z,36
2016-10-29T05:59:49.085Z,40
2016-10-29T06:00:48.431Z,44
2016-10-29T06:01:48.695Z,48
2016-10-29T06:02:48.956Z,52
2016-10-29T06:03:48.956Z,52
2016-10-29T06:04:48.578Z,56
2016-10-29T06:05:48.840Z,68
2016-10-29T06:06:48.500Z,76
2016-10-29T06:07:48.465Z,84
2016-10-29T06:08:48.427Z,92
2016-10-29T06:09:48.682Z,104
2016-10-29T06:10:48.347Z,116
2016-10-29T06:11:48.009Z,124
2016-10-29T06:12:48.607Z,132
2016-10-29T06:13:48.526Z,144
2016-10-29T06:14:48.201Z,152
2016-10-29T06:15:48.457Z,156
2016-10-29T06:16:48.111Z,164
2016-10-29T06:17:48.104Z,180
2016-10-29T06:18:48.038Z,208
2016-10-29T06:19:48.300Z,236
2016-10-29T06:20:48.259Z,260
2016-10-29T06:21:48.220Z,272
2016-10-29T06:22:48.186Z,280
2016-10-29T06:23:48.176Z,296
2016-10-29T06:24:47.809Z,308
2016-10-29T06:25:47.464Z,336
2016-10-29T06:26:48.026Z,368
2016-10-29T06:27:48.023Z,388
2016-10-29T06:28:47.648Z,412
2016-10-29T06:29:47.613Z,428
2016-10-29T06:30:47.571Z,440
2016-10-29T06:31:47.532Z,456
2016-10-29T06:32:47.799Z,480
2016-10-29T06:33:47.811Z,508
2016-10-29T06:34:47.423Z,520
2016-10-29T06:35:47.677Z,536
2016-10-29T06:36:47.643Z,584
2016-10-29T06:37:47.610Z,636
2016-10-29T06:38:47.266Z,660
2016-10-29T06:39:47.532Z,652
2016-10-29T06:40:47.180Z,680
2016-10-29T06:41:47.447Z,740
2016-10-29T06:42:47.425Z,796
2016-10-29T06:43:47.073Z,848
2016-10-29T06:44:47.034Z,900
2016-10-29T06:45:47.291Z,924
2016-10-29T06:46:47.257Z,932
2016-10-29T06:47:47.216Z,960
2016-10-29T06:48:46.874Z,1000
2016-10-29T06:49:47.140Z,1028
2016-10-29T06:50:47.103Z,1080
2016-10-29T06:51:47.059Z,1172
2016-10-29T06:52:47.028Z,1260
2016-10-29T06:53:46.684Z,1340
2016-10-29T06:54:46.944Z,1364
2016-10-29T06:55:46.596Z,1348
2016-10-29T06:56:46.867Z,1308
2016-10-29T06:57:46.826Z,1328
2016-10-29T06:58:46.786Z,1340
2016-10-29T06:59:46.750Z,1360
2016-10-29T07:00:46.415Z,1520
2016-10-29T07:01:46.672Z,1632
2016-10-29T07:02:46.326Z,1728
2016-10-29T07:03:46.289Z,1872
2016-10-29T07:04:46.555Z,1992
2016-10-29T07:05:46.516Z,2016
2016-10-29T07:06:46.478Z,1952
2016-10-29T07:07:46.805Z,1836
2016-10-29T07:08:46.094Z,1744
2016-10-29T07:09:46.372Z,1740
2016-10-29T07:10:46.323Z,1840
2016-10-29T07:11:46.288Z,2032
2016-10-29T07:12:46.248Z,2228
2016-10-29T07:13:46.208Z,2376
2016-10-29T07:14:46.175Z,2476
2016-10-29T07:15:46.160Z,2488
2016-10-29T07:16:46.090Z,2528
2016-10-29T07:17:45.754Z,2644
2016-10-29T07:18:46.015Z,2792
2016-10-29T07:19:45.674Z,2976
2016-10-29T07:20:45.941Z,3148
2016-10-29T07:21:45.904Z,3240
2016-10-29T07:22:45.563Z,3260
2016-10-29T07:23:45.519Z,3332
2016-10-29T07:24:45.783Z,3372
2016-10-29T07:25:45.748Z,3320
2016-10-29T07:26:45.709Z,3212
2016-10-29T07:27:45.677Z,3036
2016-10-29T07:28:45.334Z,3000
2016-10-29T07:29:45.605Z,3104
2016-10-29T07:30:45.557Z,3208
2016-10-29T07:31:45.215Z,3488
2016-10-29T07:32:45.486Z,3912
2016-10-29T07:33:45.443Z,4316
2016-10-29T07:34:45.097Z,4560
2016-10-29T07:35:45.374Z,4668
2016-10-29T07:36:45.022Z,4796
2016-10-29T07:37:44.987Z,4840
2016-10-29T07:38:44.956Z,4916
2016-10-29T07:39:44.919Z,4972
2016-10-29T07:40:44.882Z,4960
2016-10-29T07:41:45.150Z,4880
2016-10-29T07:42:45.103Z,4864
2016-10-29T07:43:44.759Z,4900
2016-10-29T07:44:45.030Z,4936
2016-10-29T07:45:44.689Z,4884
2016-10-29T07:46:44.953Z,4768
2016-10-29T07:47:44.910Z,4628
2016-10-29T07:48:44.875Z,4480
2016-10-29T07:49:44.548Z,4320
2016-10-29T07:50:44.804Z,4140
2016-10-29T07:51:44.808Z,4136
2016-10-29T07:52:44.430Z,4160
2016-10-29T07:53:44.686Z,4492
2016-10-29T07:54:44.044Z,4636
2016-10-29T07:55:44.314Z,4868
2016-10-29T07:56:44.579Z,4860
2016-10-29T07:57:44.242Z,4632
2016-10-29T07:58:44.197Z,4372
2016-10-29T07:59:44.465Z,4124
2016-10-29T08:00:44.421Z,4384
2016-10-29T08:01:44.087Z,4788
2016-10-29T08:02:44.356Z,5036
2016-10-29T08:03:44.014Z,5196
2016-10-29T08:04:44.282Z,5128
2016-10-29T08:05:44.255Z,4860
2016-10-29T08:06:44.205Z,4564
2016-10-29T08:07:43.563Z,4352
2016-10-29T08:08:44.126Z,4408
2016-10-29T08:09:44.098Z,4732
2016-10-29T08:10:43.753Z,4956
2016-10-29T08:11:44.012Z,5144
2016-10-29T08:12:43.681Z,5232
2016-10-29T08:13:43.639Z,5136
2016-10-29T08:14:43.939Z,5164
2016-10-29T08:15:43.575Z,5024
2016-10-29T08:16:43.833Z,4820
2016-10-29T08:17:43.491Z,4784
2016-10-29T08:18:43.759Z,4808
2016-10-29T08:19:43.419Z,5004
2016-10-29T08:20:43.685Z,5228
2016-10-29T08:21:43.043Z,5288
2016-10-29T08:22:43.606Z,5432
2016-10-29T08:23:43.572Z,5568
2016-10-29T08:24:43.536Z,5596
2016-10-29T08:25:43.497Z,5568
2016-10-29T08:26:43.462Z,5396
2016-10-29T08:27:43.425Z,5152
2016-10-29T08:28:43.087Z,5116
2016-10-29T08:29:43.048Z,5120
2016-10-29T08:30:43.315Z,5272
2016-10-29T08:31:43.281Z,5708
2016-10-29T08:32:42.331Z,6588
2016-10-29T08:33:42.903Z,7616
2016-10-29T08:34:42.865Z,8480
2016-10-29T08:35:43.126Z,8904
2016-10-29T08:36:43.097Z,8716
2016-10-29T08:37:42.756Z,8216
2016-10-29T08:38:43.028Z,7632
2016-10-29T08:39:42.984Z,7252
2016-10-29T08:40:42.952Z,7412
2016-10-29T08:41:42.911Z,8256
2016-10-29T08:42:42.872Z,8772
2016-10-29T08:43:42.539Z,8304
2016-10-29T08:44:42.237Z,7988
2016-10-29T08:45:42.765Z,8264
2016-10-29T08:46:42.428Z,8736
2016-10-29T08:47:42.690Z,8932
2016-10-29T08:48:42.658Z,9156
2016-10-29T08:49:42.617Z,9560
2016-10-29T08:50:42.584Z,9868
2016-10-29T08:51:42.246Z,9768
2016-10-29T08:52:42.514Z,9652
2016-10-29T08:53:42.518Z,9612
2016-10-29T08:54:42.439Z,10108
2016-10-29T08:55:42.099Z,11632
2016-10-29T08:56:42.374Z,13576
2016-10-29T08:57:42.063Z,15268
2016-10-29T08:58:42.293Z,15500
2016-10-29T08:59:41.954Z,14224
2016-10-29T09:00:42.223Z,13328
2016-10-29T09:01:42.185Z,12304
2016-10-29T09:02:42.155Z,11740
2016-10-29T09:03:42.118Z,11484
2016-10-29T09:04:41.777Z,10576
2016-10-29T09:05:42.047Z,9312
2016-10-29T09:06:42.012Z,8160
2016-10-29T09:07:41.971Z,7300
2016-10-29T09:08:41.935Z,6796
2016-10-29T09:09:41.609Z,6460
2016-10-29T09:10:41.604Z,6296
2016-10-29T09:11:41.868Z,6260
2016-10-29T09:12:41.804Z,6328
2016-10-29T09:13:41.472Z,6316
2016-10-29T09:14:41.763Z,6088
2016-10-29T09:15:41.690Z,5640
2016-10-29T09:16:41.669Z,5312
2016-10-29T09:17:41.326Z,5320
2016-10-29T09:18:41.584Z,5680
2016-10-29T09:19:41.251Z,6144
2016-10-29T09:20:41.510Z,6340
2016-10-29T09:21:41.477Z,6392
2016-10-29T09:22:41.148Z,6456
2016-10-29T09:23:41.105Z,6556
2016-10-29T09:24:41.370Z,6800
2016-10-29T09:25:41.335Z,7028
2016-10-29T09:26:41.002Z,6940
2016-10-29T09:27:40.955Z,7008
2016-10-29T09:28:40.925Z,7452
2016-10-29T09:29:41.194Z,7664
2016-10-29T09:30:40.855Z,7424
2016-10-29T09:31:40.239Z,7112
2016-10-29T09:32:41.095Z,7160
2016-10-29T09:33:41.047Z,7804
2016-10-29T09:34:40.711Z,8460
2016-10-29T09:35:40.679Z,8168
2016-10-29T09:36:40.986Z,7440
2016-10-29T09:37:40.005Z,6900
2016-10-29T09:38:40.577Z,6620
2016-10-29T09:39:40.537Z,6640
2016-10-29T09:40:40.805Z,6708
2016-10-29T09:41:40.762Z,6804
2016-10-29T09:42:40.736Z,6768
2016-10-29T09:43:40.708Z,6572
2016-10-29T09:44:40.396Z,6408
2016-10-29T09:45:40.319Z,6340
2016-10-29T09:46:40.290Z,6336
2016-10-29T09:47:40.600Z,6388
2016-10-29T09:48:40.516Z,6424
2016-10-29T09:49:40.482Z,6484
2016-10-29T09:50:40.445Z,6476
2016-10-29T09:51:40.410Z,6372
2016-10-29T09:52:40.079Z,6300
2016-10-29T09:53:40.035Z,6440
2016-10-29T09:54:40.302Z,6776
2016-10-29T09:55:40.266Z,6992
2016-10-29T09:56:40.239Z,6876
2016-10-29T09:57:40.194Z,6644
2016-10-29T09:58:39.863Z,6556
2016-10-29T09:59:39.817Z,6636
2016-10-29T10:00:39.789Z,6616
2016-10-29T10:01:40.083Z,6508
2016-10-29T10:02:40.017Z,6360
2016-10-29T10:03:39.975Z,6316
2016-10-29T10:04:39.954Z,6468
2016-10-29T10:05:39.914Z,6668
2016-10-29T10:06:39.748Z,6720
2016-10-29T10:07:39.837Z,6592
2016-10-29T10:08:39.808Z,6448
2016-10-29T10:09:39.772Z,6364
2016-10-29T10:10:39.732Z,6376
2016-10-29T10:11:39.700Z,6572
2016-10-29T10:12:39.656Z,6904
2016-10-29T10:13:39.621Z,7272
2016-10-29T10:14:39.583Z,7488
2016-10-29T10:15:39.287Z,7448
2016-10-29T10:16:39.523Z,7456
2016-10-29T10:17:39.483Z,7700
2016-10-29T10:18:38.866Z,7684
2016-10-29T10:19:39.416Z,7616
2016-10-29T10:20:39.376Z,7536
2016-10-29T10:21:39.338Z,7180
2016-10-29T10:22:39.306Z,6944
2016-10-29T10:23:39.270Z,7028
2016-10-29T10:24:39.233Z,7072
2016-10-29T10:25:38.895Z,7100
2016-10-29T10:26:38.887Z,7248
2016-10-29T10:27:39.132Z,7436
2016-10-29T10:28:39.084Z,7376
2016-10-29T10:29:39.052Z,7168
2016-10-29T10:30:39.010Z,7032
2016-10-29T10:31:38.681Z,6804
2016-10-29T10:32:38.641Z,6648
2016-10-29T10:33:38.916Z,6608
2016-10-29T10:34:38.878Z,6588
2016-10-29T10:35:38.536Z,6544
2016-10-29T10:36:38.521Z,6440
2016-10-29T10:37:38.461Z,6424
2016-10-29T10:38:38.430Z,6416
2016-10-29T10:39:38.086Z,6520
2016-10-29T10:40:38.357Z,6620
2016-10-29T10:41:38.631Z,6704
2016-10-29T10:42:38.280Z,6800
2016-10-29T10:43:38.247Z,6860
2016-10-29T10:44:38.513Z,6844
2016-10-29T10:45:38.175Z,6892
2016-10-29T10:46:37.835Z,6908
2016-10-29T10:47:38.410Z,6952
2016-10-29T10:48:37.764Z,6936
2016-10-29T10:49:38.034Z,6896
2016-10-29T10:50:37.992Z,6792
2016-10-29T10:51:38.263Z,6764
2016-10-29T10:52:38.228Z,6804
2016-10-29T10:53:38.190Z,6700
2016-10-29T10:54:38.154Z,6572
2016-10-29T10:55:37.510Z,6516
2016-10-29T10:56:38.087Z,6552
2016-10-29T10:57:38.045Z,6712
2016-10-29T10:58:38.047Z,6848
2016-10-29T10:59:37.670Z,7024
2016-10-29T11:00:37.942Z,7152
2016-10-29T11:01:37.900Z,7152
2016-10-29T11:02:37.865Z,7148
2016-10-29T11:03:37.539Z,7196
2016-10-29T11:04:37.801Z,7216
2016-10-29T11:05:37.761Z,7200
2016-10-29T11:06:37.729Z,7228
2016-10-29T11:07:37.691Z,7148
2016-10-29T11:08:37.670Z,7216
2016-10-29T11:09:37.618Z,7316
2016-10-29T11:10:37.587Z,7616
2016-10-29T11:11:37.252Z,7908
2016-10-29T11:12:36.951Z,8132
2016-10-29T11:13:37.166Z,8064
2016-10-29T11:14:37.443Z,8140
2016-10-29T11:15:37.134Z,8064
2016-10-29T11:16:36.768Z,7748
2016-10-29T11:17:36.767Z,7600
2016-10-29T11:18:37.001Z,7452
2016-10-29T11:19:37.266Z,7244
2016-10-29T11:20:36.623Z,7196
2016-10-29T11:21:36.890Z,7444
2016-10-29T11:22:37.203Z,7516
2016-10-29T11:23:36.821Z,7568
2016-10-29T11:24:37.084Z,7604
2016-10-29T11:25:37.048Z,7888
2016-10-29T11:26:36.712Z,7984
2016-10-29T11:27:36.679Z,8116
2016-10-29T11:28:36.642Z,8172
2016-10-29T11:29:36.916Z,8068
2016-10-29T11:30:36.865Z,8060
2016-10-29T11:31:36.233Z,8116
2016-10-29T11:32:36.799Z,7952
2016-10-29T11:33:36.765Z,7988
2016-10-29T11:34:36.739Z,7848
2016-10-29T11:35:36.401Z,7748
2016-10-29T11:36:36.659Z,7768
2016-10-29T11:37:36.635Z,7860
2016-10-29T11:38:36.585Z,8048
2016-10-29T11:39:36.555Z,8120
2016-10-29T11:40:36.550Z,8120
2016-10-29T11:41:36.194Z,8220
2016-10-29T11:42:36.167Z,8236
2016-10-29T11:43:36.417Z,8332
2016-10-29T11:44:36.078Z,8400
2016-10-29T11:45:36.041Z,8464
2016-10-29T11:46:36.312Z,8904
2016-10-29T11:47:36.276Z,9172
2016-10-29T11:48:36.233Z,9232
2016-10-29T11:49:35.900Z,9240
2016-10-29T11:50:36.169Z,9060
2016-10-29T11:51:36.135Z,9044
2016-10-29T11:52:36.097Z,8700
2016-10-29T11:53:36.065Z,8504
2016-10-29T11:54:35.727Z,8408
2016-10-29T11:55:35.691Z,8424
2016-10-29T11:56:35.673Z,8592
2016-10-29T11:57:35.925Z,8792
2016-10-29T11:58:35.923Z,8632
2016-10-29T11:59:35.855Z,8676
2016-10-29T12:00:35.218Z,8680
2016-10-29T12:01:35.480Z,8608
2016-10-29T12:02:35.441Z,8360
2016-10-29T12:03:35.747Z,8412
2016-10-29T12:04:35.377Z,8292
2016-10-29T12:05:35.648Z,8116
2016-10-29T12:06:35.304Z,8324
2016-10-29T12:07:35.281Z,8456
2016-10-29T12:08:35.238Z,8432
2016-10-29T12:09:34.904Z,8636
2016-10-29T12:10:35.466Z,8964
2016-10-29T12:11:35.480Z,9012
2016-10-29T12:12:34.791Z,9344
2016-10-29T12:13:35.361Z,9808
2016-10-29T12:14:35.024Z,10068
2016-10-29T12:15:35.290Z,9996
2016-10-29T12:16:35.255Z,9928
2016-10-29T12:17:35.218Z,10372
2016-10-29T12:18:35.185Z,10244
2016-10-29T12:19:35.151Z,10288
2016-10-29T12:20:35.119Z,10096
2016-10-29T12:21:35.082Z,9840
2016-10-29T12:22:34.784Z,10120
2016-10-29T12:23:35.012Z,10768
2016-10-29T12:24:34.673Z,11240
2016-10-29T12:25:34.636Z,11220
2016-10-29T12:26:34.922Z,11332
2016-10-29T12:27:34.910Z,10864
2016-10-29T12:28:34.542Z,10700
2016-10-29T12:29:34.801Z,10268
2016-10-29T12:30:34.768Z,9752
2016-10-29T12:31:34.428Z,9692
2016-10-29T12:32:34.704Z,9432
2016-10-29T12:33:34.060Z,8636
2016-10-29T12:34:34.629Z,9064
2016-10-29T12:35:34.590Z,9460
2016-10-29T12:36:34.553Z,8912
2016-10-29T12:37:34.249Z,9872
2016-10-29T12:38:34.187Z,10512
2016-10-29T12:39:34.455Z,10404
2016-10-29T12:40:34.427Z,10412
2016-10-29T12:41:34.081Z,9716
2016-10-29T12:42:34.353Z,9560
2016-10-29T12:43:34.317Z,10108
2016-10-29T12:44:34.286Z,10580
2016-10-29T12:45:33.942Z,11004
2016-10-29T12:46:33.908Z,11332
2016-10-29T12:47:34.178Z,10988
2016-10-29T12:48:33.846Z,10912
2016-10-29T12:49:33.862Z,10852
2016-10-29T12:50:34.075Z,10744
2016-10-29T12:51:33.746Z,10988
2016-10-29T12:52:33.710Z,11328
2016-10-29T12:53:33.978Z,11412
2016-10-29T12:54:33.947Z,11616
2016-10-29T12:55:33.302Z,11632
2016-10-29T12:56:33.872Z,11080
2016-10-29T12:57:33.834Z,10892
2016-10-29T12:58:33.510Z,10988
2016-10-29T12:59:33.770Z,11100
2016-10-29T13:00:33.441Z,10256
2016-10-29T13:01:33.698Z,9816
2016-10-29T13:02:33.366Z,10768
2016-10-29T13:03:33.685Z,10972
2016-10-29T13:04:33.601Z,10284
2016-10-29T13:05:33.306Z,9944
2016-10-29T13:06:33.232Z,10056
2016-10-29T13:07:33.498Z,9464
2016-10-29T13:08:33.463Z,9012
2016-10-29T13:09:33.133Z,8652
2016-10-29T13:10:33.109Z,8200
2016-10-29T13:11:33.363Z,7988
2016-10-29T13:12:32.760Z,7908
2016-10-29T13:13:33.295Z,7652
2016-10-29T13:14:33.269Z,7144
2016-10-29T13:15:32.925Z,6952
2016-10-29T13:16:32.591Z,6764
2016-10-29T13:17:32.861Z,6556
2016-10-29T13:18:33.127Z,6572
2016-10-29T13:19:32.795Z,6724
2016-10-29T13:20:33.063Z,7140
2016-10-29T13:21:32.732Z,7424
2016-10-29T13:22:32.690Z,7152
2016-10-29T13:23:32.970Z,6736
2016-10-29T13:24:32.969Z,6668
2016-10-29T13:25:32.896Z,6876
2016-10-29T13:26:32.859Z,7152
2016-10-29T13:27:32.831Z,7140
2016-10-29T13:28:32.794Z,7040
2016-10-29T13:29:32.458Z,6952
2016-10-29T13:30:32.725Z,6872
2016-10-29T13:31:32.696Z,6808
2016-10-29T13:32:32.395Z,6840
2016-10-29T13:33:32.327Z,6788
2016-10-29T13:34:32.290Z,6612
2016-10-29T13:35:32.251Z,6112
2016-10-29T13:36:32.231Z,5596
2016-10-29T13:37:32.493Z,5496
2016-10-29T13:38:32.467Z,5708
2016-10-29T13:39:32.119Z,5632
2016-10-29T13:40:32.384Z,5320
2016-10-29T13:41:32.066Z,5120
2016-10-29T13:42:32.317Z,5016
2016-10-29T13:43:31.985Z,5000
2016-10-29T13:44:32.258Z,5020
2016-10-29T13:45:32.221Z,5060
2016-10-29T13:46:31.883Z,5044
2016-10-29T13:47:32.179Z,4952
2016-10-29T13:48:31.824Z,4844
2016-10-29T13:49:31.479Z,4784
2016-10-29T13:50:32.056Z,4796
2016-10-29T13:51:32.015Z,4672
2016-10-29T13:52:31.981Z,4516
2016-10-29T13:53:31.962Z,4372